Time;durP1;ratioP1;P1;durP2;ratioP2;P2;SDS_P1;SDS_P2;PMS_P1;PMS_P2;Temp;Humidity;BMP_temperature;BMP_pressure;BME280_temperature;BME280_humidity;BME280_pressure;Samples;Min_cycle;Max_cycle;Signal;HPM_P1;HPM_P2
2020/12/09 00:00:08;;;;;;;24.85;11.40;;;5.10;99.90;;;;;;3500996;33;20233;-90
2020/12/09 00:02:41;;;;;;;28.33;11.93;;;5.00;99.90;;;;;;3499768;33;20128;-89
2020/12/09 00:05:09;;;;;;;;;;;5.10;99.90;;;;;;3488672;41;20180;-90
2020/12/09 00:07:37;;;;;;;28.52;12.23;;;;;;;;;;3492602;41;20013;-89
2020/12/09 00:10:08;;;;;;;28.42;12.77;;;;;;;;;;3505400;41;20148;-87
2020/12/09 00:12:38;;;;;;;23.87;11.87;;;;;;;;;;3493518;33;20140;-89
2020/12/09 00:15:08;;;;;;;36.35;13.07;;;5.10;99.90;;;;;;3490108;33;20164;-89
2020/12/09 00:17:35;;;;;;;32.65;13.50;;;;;;;;;;3500769;33;20612;-89
2020/12/09 00:20:05;;;;;;;26.95;13.35;;;5.20;99.90;;;;;;3504016;33;20152;-89
2020/12/09 00:22:35;;;;;;;26.25;11.82;;;5.10;99.90;;;;;;3507918;33;20148;-89
2020/12/09 00:25:04;;;;;;;25.83;14.45;;;;;;;;;;3492602;33;20130;-90
2020/12/09 00:27:33;;;;;;;25.92;11.25;;;5.10;99.90;;;;;;3493643;33;20517;-90
2020/12/09 00:30:02;;;;;;;33.42;14.77;;;;;;;;;;3491568;33;20154;-88
2020/12/09 00:32:30;;;;;;;30.83;15.63;;;;;;;;;;3496619;35;20140;-88
2020/12/09 00:34:58;;;;;;;33.50;13.93;;;;;;;;;;3490122;41;20535;-89
2020/12/09 00:37:26;;;;;;;31.05;13.65;;;;;;;;;;3484481;33;20168;-89
2020/12/09 00:39:53;;;;;;;25.27;13.02;;;;;;;;;;3497365;33;20160;-89
2020/12/09 00:42:22;;;;;;;23.92;12.88;;;;;;;;;;3494522;33;20140;-88
2020/12/09 00:44:50;;;;;;;19.80;10.93;;;;;;;;;;3500468;33;20601;-89
2020/12/09 00:47:19;;;;;;;24.17;11.30;;;;;;;;;;3490192;33;20176;-89
2020/12/09 00:49:58;;;;;;;29.65;14.07;;;;;;;;;;3496860;41;20195;-89
2020/12/09 00:52:34;;;;;;;21.90;9.93;;;;;;;;;;3498977;33;20518;-89
2020/12/09 00:55:03;;;;;;;25.67;11.95;;;;;;;;;;3495084;33;20163;-90
2020/12/09 00:57:30;;;;;;;23.60;11.40;;;;;;;;;;3498694;41;20148;-89
2020/12/09 01:00:00;;;;;;;31.25;11.57;;;;;;;;;;3521486;33;20144;-88
2020/12/09 01:02:35;;;;;;;20.95;11.10;;;;;;;;;;3496672;33;20595;-89
2020/12/09 01:05:07;;;;;;;25.40;9.45;;;;;;;;;;3506987;33;20125;-89
2020/12/09 01:07:34;;;;;;;24.45;9.32;;;;;;;;;;3509346;33;20162;-88
2020/12/09 01:10:05;;;;;;;17.95;8.57;;;5.40;99.90;;;;;;3488111;33;20135;-86
2020/12/09 01:12:34;;;;;;;26.98;11.13;;;5.30;99.90;;;;;;3493196;41;20116;-88
2020/12/09 01:15:02;;;;;;;16.45;9.13;;;;;;;;;;3500301;41;20149;-89
2020/12/09 01:17:31;;;;;;;21.77;10.30;;;;;;;;;;3507130;33;20123;-88
2020/12/09 01:20:03;;;;;;;18.73;8.80;;;5.30;99.90;;;;;;3503456;33;20135;-89
2020/12/09 01:22:34;;;;;;;21.25;7.53;;;5.50;99.90;;;;;;3495017;33;20151;-88
2020/12/09 01:25:03;;;;;;;19.23;8.93;;;;;;;;;;3487997;33;20162;-89
2020/12/09 01:27:31;;;;;;;20.10;9.43;;;;;;;;;;3502324;33;20148;-89
2020/12/09 01:29:59;;;;;;;17.60;8.63;;;;;;;;;;3508977;33;20139;-89
2020/12/09 01:32:27;;;;;;;43.15;10.63;;;;;;;;;;3506518;33;20599;-90
2020/12/09 01:34:54;;;;;;;15.57;6.20;;;;;;;;;;3513119;33;20124;-88
2020/12/09 01:37:24;;;;;;;20.48;8.88;;;;;;;;;;3490390;41;20124;-89
2020/12/09 01:39:52;;;;;;;27.67;9.77;;;;;;;;;;3498181;33;20160;-89
2020/12/09 01:42:21;;;;;;;25.30;9.45;;;;;;;;;;3502404;33;20139;-88
2020/12/09 01:44:51;;;;;;;15.27;5.78;;;;;;;;;;3494370;33;20577;-89
2020/12/09 01:47:19;;;;;;;20.77;9.80;;;;;;;;;;3514440;33;20625;-89
2020/12/09 01:49:47;;;;;;;26.20;10.88;;;;;;;;;;3492047;33;20168;-89
2020/12/09 01:52:17;;;;;;;29.58;9.30;;;6.30;99.90;;;;;;3490956;33;20140;-88
2020/12/09 01:54:50;;;;;;;19.33;7.78;;;;;;;;;;3499240;33;20136;-88
2020/12/09 01:57:18;;;;;;;18.88;9.00;;;;;;;;;;3512113;33;20165;-87
2020/12/09 01:59:48;;;;;;;24.77;9.35;;;;;;;;;;3490315;33;20133;-89
2020/12/09 02:02:17;;;;;;;23.08;9.25;;;;;;;;;;3499114;41;20159;-90
2020/12/09 02:04:48;;;;;;;20.20;9.75;;;5.70;99.90;;;;;;3498715;33;20148;-89
2020/12/09 02:07:16;;;;;;;11.85;5.35;;;;;;;;;;3504834;41;20137;-90
2020/12/09 02:09:56;;;;;;;15.95;6.60;;;5.60;99.90;;;;;;3491141;41;20149;-90
2020/12/09 02:12:24;;;;;;;16.92;6.88;;;;;;;;;;3494943;33;20128;-88
2020/12/09 02:14:53;;;;;;;29.52;10.75;;;;;;;;;;3520445;33;20140;-90
2020/12/09 02:17:20;;;;;;;25.98;8.70;;;;;;;;;;3514433;33;20131;-89
2020/12/09 02:19:49;;;;;;;30.75;12.05;;;;;;;;;;3490944;33;20187;-89
2020/12/09 02:22:18;;;;;;;19.13;8.98;;;;;;;;;;3500476;33;20167;-90
2020/12/09 02:24:46;;;;;;;19.65;7.75;;;;;;;;;;3497196;33;20496;-89
2020/12/09 02:27:15;;;;;;;15.20;6.97;;;;;;;;;;3491548;41;20751;-88
2020/12/09 02:29:43;;;;;;;20.33;8.40;;;;;;;;;;3512341;33;20136;-88
2020/12/09 02:32:10;;;;;;;24.35;8.85;;;;;;;;;;3498723;33;20140;-88
2020/12/09 02:34:42;;;;;;;17.25;7.28;;;;;;;;;;3496821;41;20140;-89
2020/12/09 02:37:09;;;;;;;14.85;6.15;;;;;;;;;;3505074;33;20137;-90
2020/12/09 02:39:38;;;;;;;24.20;9.70;;;5.90;99.90;;;;;;3502728;33;20182;-89
2020/12/09 02:42:06;;;;;;;19.42;7.68;;;;;;;;;;3501198;33;20151;-89
2020/12/09 02:44:36;;;;;;;13.48;7.05;;;;;;;;;;3498407;41;20148;-89
2020/12/09 02:47:04;;;;;;;24.88;6.88;;;;;;;;;;3496173;41;20148;-90
2020/12/09 02:49:32;;;;;;;26.27;6.85;;;;;;;;;;3498608;33;20195;-88
2020/12/09 02:52:00;;;;;;;19.63;6.80;;;;;;;;;;3500341;33;20152;-90
2020/12/09 02:54:29;;;;;;;14.73;7.18;;;;;;;;;;3501561;33;20159;-89
2020/12/09 02:56:56;;;;;;;19.30;7.22;;;;;;;;;;3505593;40;20147;-89
2020/12/09 02:59:24;;;;;;;22.50;7.80;;;;;;;;;;3499009;41;20141;-89
2020/12/09 03:01:52;;;;;;;15.13;6.78;;;;;;;;;;3495592;41;20136;-89
2020/12/09 03:04:20;;;;;;;21.83;9.57;;;;;;;;;;3532624;33;20160;-89
2020/12/09 03:06:49;;;;;;;43.83;9.70;;;;;;;;;;3514639;33;20129;-88
2020/12/09 03:09:17;;;;;;;18.85;6.78;;;;;;;;;;3511554;33;20165;-90
2020/12/09 03:11:44;;;;;;;19.50;7.68;;;;;;;;;;3518737;40;20207;-88
2020/12/09 03:14:12;;;;;;;20.30;6.35;;;;;;;;;;3492059;41;20504;-90
2020/12/09 03:16:41;;;;;;;14.35;4.93;;;;;;;;;;3491757;41;20141;-89
2020/12/09 03:19:08;;;;;;;21.05;6.60;;;5.90;99.90;;;;;;3507129;33;20152;-88
2020/12/09 03:21:36;;;;;;;19.50;7.65;;;;;;;;;;3510500;33;20144;-89
2020/12/09 03:24:05;;;;;;;21.95;8.55;;;;;;;;;;3499077;33;20144;-89
2020/12/09 03:26:32;;;;;;;14.20;6.05;;;;;;;;;;3498374;41;20173;-90
2020/12/09 03:29:00;;;;;;;13.80;7.20;;;;;;;;;;3505041;41;20144;-89
2020/12/09 03:31:28;;;;;;;10.65;4.55;;;;;;;;;;3514006;33;20137;-90
2020/12/09 03:33:59;;;;;;;18.63;6.18;;;;;;;;;;3506356;33;20152;-90
2020/12/09 03:36:27;;;;;;;18.98;7.72;;;;;;;;;;3507371;33;20561;-89
2020/12/09 03:38:56;;;;;;;20.65;7.40;;;;;;;;;;3499108;41;20132;-89
2020/12/09 03:41:27;;;;;;;;;;;5.80;99.90;;;;;;3507507;33;20175;-88
2020/12/09 03:43:54;;;;;;;22.63;6.28;;;;;;;;;;3497093;41;20113;-90
2020/12/09 03:46:22;;;;;;;21.98;6.40;;;;;;;;;;3497862;41;20160;-90
2020/12/09 03:48:49;;;;;;;18.20;6.20;;;;;;;;;;3504936;41;20472;-89
2020/12/09 03:51:16;;;;;;;15.70;5.43;;;;;;;;;;3500132;41;20155;-89
2020/12/09 03:53:48;;;;;;;16.58;5.32;;;;;;;;;;3502053;41;20692;-90
2020/12/09 03:56:19;;;;;;;11.80;5.05;;;;;;;;;;3503588;41;20140;-89
2020/12/09 03:58:46;;;;;;;14.63;5.45;;;;;;;;;;3495243;41;20167;-90
2020/12/09 04:01:14;;;;;;;17.38;6.82;;;;;;;;;;3506364;33;20136;-89
2020/12/09 04:03:42;;;;;;;14.43;5.80;;;;;;;;;;3503471;41;20157;-90
2020/12/09 04:06:09;;;;;;;27.15;7.53;;;;;;;;;;3500399;33;20183;-88
2020/12/09 04:08:37;;;;;;;16.40;5.47;;;;;;;;;;3496290;41;20140;-90
2020/12/09 04:11:06;;;;;;;24.38;6.07;;;;;;;;;;3496412;33;20136;-89
2020/12/09 04:13:34;;;;;;;19.85;6.72;;;;;;;;;;3501536;41;20204;-88
2020/12/09 04:16:02;;;;;;;18.02;6.25;;;;;;;;;;3524333;33;20136;-89
2020/12/09 04:18:31;;;;;;;19.67;7.03;;;;;;;;;;3500129;41;20143;-88
2020/12/09 04:21:01;;;;;;;16.80;5.05;;;;;;;;;;3495162;41;20152;-87
2020/12/09 04:23:31;;;;;;;11.52;5.25;;;;;;;;;;3488149;41;20148;-89
2020/12/09 04:25:58;;;;;;;22.58;6.35;;;;;;;;;;3516649;33;20137;-90
2020/12/09 04:28:27;;;;;;;20.80;7.13;;;;;;;;;;3523334;33;20243;-90
2020/12/09 04:30:55;;;;;;;31.65;6.45;;;;;;;;;;3521942;33;20176;-89
2020/12/09 04:33:30;;;;;;;18.58;6.22;;;5.80;99.90;;;;;;3508972;33;20144;-88
2020/12/09 04:36:03;;;;;;;15.65;6.45;;;5.80;99.90;;;;;;3501214;33;20156;-89
2020/12/09 04:38:30;;;;;;;;;;;5.90;99.90;;;;;;3511407;33;20128;-90
2020/12/09 04:40:58;;;;;;;30.20;7.45;;;;;;;;;;3505625;33;20009;-88
2020/12/09 04:43:25;;;;;;;15.52;5.97;;;;;;;;;;3494449;33;20600;-90
2020/12/09 04:45:53;;;;;;;23.58;6.50;;;;;;;;;;3492480;33;20508;-88
2020/12/09 04:48:28;;;;;;;18.27;6.82;;;5.90;99.90;;;;;;3496509;33;20128;-88
2020/12/09 04:51:29;;;;;;;17.25;6.80;;;5.80;99.90;;;;;;3504803;33;20145;-90
2020/12/09 04:54:00;;;;;;;22.53;7.90;;;;;;;;;;3487636;41;20184;-89
2020/12/09 04:56:37;;;;;;;24.30;5.88;;;5.70;99.90;;;;;;3490567;41;20175;-89
2020/12/09 04:59:14;;;;;;;12.70;5.18;;;5.80;99.90;;;;;;3507734;33;20135;-89
2020/12/09 05:02:05;;;;;;;18.98;5.55;;;5.70;99.90;;;;;;3502362;41;20147;-89
2020/12/09 05:04:34;;;;;;;14.32;5.82;;;5.70;99.90;;;;;;3527539;33;20466;-89
2020/12/09 05:07:10;;;;;;;15.27;6.30;;;5.70;99.90;;;;;;3508725;33;20152;-88
2020/12/09 05:09:48;;;;;;;23.33;7.72;;;5.70;99.90;;;;;;3506109;33;20173;-89
2020/12/09 05:12:17;;;;;;;29.95;7.53;;;5.60;99.90;;;;;;3501306;33;20585;-88
2020/12/09 05:14:48;;;;;;;12.50;4.97;;;5.60;99.90;;;;;;3510951;41;20116;-89
2020/12/09 05:17:19;;;;;;;22.33;7.38;;;5.70;99.90;;;;;;3500108;41;20161;-89
2020/12/09 05:19:48;;;;;;;;;;;5.70;99.90;;;;;;3521499;33;20161;-89
2020/12/09 05:22:21;;;;;;;19.98;5.57;;;5.60;99.90;;;;;;3506094;33;20016;-89
2020/12/09 05:24:49;;;;;;;20.27;7.22;;;;;;;;;;3503047;33;20152;-89
2020/12/09 05:27:19;;;;;;;18.83;5.82;;;;;;;;;;3511658;33;20152;-90
2020/12/09 05:29:49;;;;;;;23.10;7.68;;;5.70;99.90;;;;;;3508346;41;20143;-87
2020/12/09 05:32:20;;;;;;;21.85;5.03;;;;;;;;;;3503618;33;20207;-88
2020/12/09 05:34:48;;;;;;;19.95;4.95;;;;;;;;;;3507008;40;20137;-88
2020/12/09 05:37:17;;;;;;;16.50;5.43;;;5.60;99.90;;;;;;3499514;41;20172;-88
2020/12/09 05:39:53;;;;;;;21.52;5.90;;;5.70;99.90;;;;;;3511338;33;20116;-89
2020/12/09 05:42:23;;;;;;;21.60;4.93;;;5.70;99.90;;;;;;3512903;33;20155;-88
2020/12/09 05:44:51;;;;;;;29.83;6.72;;;;;;;;;;3501276;33;20135;-88
2020/12/09 05:47:22;;;;;;;15.00;6.28;;;;;;;;;;3524846;33;20485;-89
2020/12/09 05:49:49;;;;;;;20.63;5.82;;;;;;;;;;3500155;41;20108;-89
2020/12/09 05:52:21;;;;;;;21.55;6.05;;;;;;;;;;3497305;33;20136;-89
2020/12/09 05:54:52;;;;;;;13.82;5.45;;;5.60;99.90;;;;;;3501134;33;20136;-86
2020/12/09 05:57:26;;;;;;;18.10;5.88;;;5.60;99.90;;;;;;3505629;40;20553;-88
2020/12/09 05:59:55;;;;;;;18.38;6.68;;;;;;;;;;3519148;33;20168;-89
2020/12/09 06:02:23;;;;;;;24.25;5.25;;;5.60;99.90;;;;;;3514169;33;20164;-88
2020/12/09 06:04:54;;;;;;;17.10;5.43;;;5.60;99.90;;;;;;3503637;33;20073;-88
2020/12/09 06:07:24;;;;;;;16.77;6.13;;;5.70;99.90;;;;;;3504852;33;20124;-89
2020/12/09 06:10:10;;;;;;;19.98;5.32;;;5.70;99.90;;;;;;3541194;33;20115;-88
2020/12/09 06:12:55;;;;;;;14.80;5.53;;;5.60;99.90;;;;;;3499242;33;20516;-89
2020/12/09 06:15:32;;;;;;;16.15;7.30;;;5.60;99.90;;;;;;3513196;33;20132;-88
2020/12/09 06:18:13;;;;;;;12.35;5.25;;;5.60;99.90;;;;;;3513565;33;20116;-88
2020/12/09 06:20:46;;;;;;;16.42;4.88;;;;;;;;;;3544837;33;20100;-89
2020/12/09 06:23:20;;;;;;;16.13;5.22;;;;;;;;;;3497648;41;20124;-89
2020/12/09 06:26:07;;;;;;;25.58;7.32;;;;;;;;;;3513080;33;20122;-89
2020/12/09 06:28:43;;;;;;;14.60;5.75;;;5.50;99.90;;;;;;3498814;41;20140;-89
2020/12/09 06:31:11;;;;;;;21.25;6.47;;;;;;;;;;3496571;33;20146;-89
2020/12/09 06:33:44;;;;;;;39.05;6.78;;;5.60;99.90;;;;;;3503747;33;20148;-88
2020/12/09 06:36:11;;;;;;;12.48;4.85;;;;;;;;;;3489143;41;20136;-89
2020/12/09 06:38:40;;;;;;;15.15;6.28;;;;;;;;;;3510925;33;20160;-89
2020/12/09 06:41:11;;;;;;;15.55;5.97;;;5.50;99.90;;;;;;3495641;33;20177;-89
2020/12/09 06:44:03;;;;;;;21.65;6.82;;;5.50;99.90;;;;;;3503612;33;20144;-88
2020/12/09 06:46:46;;;;;;;18.55;5.15;;;5.50;99.90;;;;;;3491883;33;20534;-90
2020/12/09 06:49:30;;;;;;;;;;;5.50;99.90;;;;;;3496352;33;20146;-88
2020/12/09 06:52:02;;;;;;;18.00;6.07;;;5.60;99.90;;;;;;3512012;33;20016;-88
2020/12/09 06:54:41;;;;;;;25.10;5.60;;;5.60;99.90;;;;;;3501927;41;20523;-89
2020/12/09 06:57:25;;;;;;;22.15;5.40;;;5.50;99.90;;;;;;3507724;33;20140;-87
2020/12/09 07:00:21;;;;;;;20.75;5.63;;;5.50;99.90;;;;;;3493690;33;20157;-88
2020/12/09 07:02:56;;;;;;;19.50;5.43;;;5.50;99.90;;;;;;3507010;33;20136;-89
2020/12/09 07:05:28;;;;;;;12.68;4.70;;;5.50;99.90;;;;;;3493367;33;20187;-90
2020/12/09 07:08:01;;;;;;;31.02;8.02;;;5.60;99.90;;;;;;3497962;33;20746;-89
2020/12/09 07:10:31;;;;;;;14.45;5.30;;;5.50;99.90;;;;;;3511626;33;20151;-89
2020/12/09 07:13:08;;;;;;;22.50;6.78;;;5.50;99.90;;;;;;3485506;41;20111;-89
2020/12/09 07:15:42;;;;;;;11.20;5.00;;;5.50;99.90;;;;;;3508645;33;20130;-88
2020/12/09 07:18:09;;;;;;;15.43;5.78;;;;;;;;;;3519209;33;20101;-90
2020/12/09 07:20:42;;;;;;;;;;;5.60;99.90;;;;;;3516246;33;20104;-89
2020/12/09 07:23:12;;;;;;;16.50;4.45;;;;;;;;;;3517916;33;20000;-92
2020/12/09 07:25:40;;;;;;;21.38;7.97;;;;;;;;;;3499527;33;20131;-88
2020/12/09 07:28:10;;;;;;;15.35;4.93;;;;;;;;;;3513839;41;20104;-87
2020/12/09 07:30:38;;;;;;;21.42;8.68;;;;;;;;;;3506944;33;20105;-93
2020/12/09 07:33:16;;;;;;;9.70;4.55;;;5.60;99.90;;;;;;3515487;33;20132;-89
2020/12/09 07:35:45;;;;;;;18.30;6.78;;;;;;;;;;3505307;41;20127;-88
2020/12/09 07:38:21;;;;;;;13.43;5.03;;;;;;;;;;3496501;41;20131;-92
2020/12/09 07:40:49;;;;;;;14.88;4.80;;;;;;;;;;3491604;33;20140;-88
2020/12/09 07:43:18;;;;;;;15.43;4.72;;;;;;;;;;3514236;33;20120;-89
2020/12/09 07:45:51;;;;;;;26.05;5.65;;;;;;;;;;3583662;33;20089;-93
2020/12/09 07:48:55;;;;;;;18.70;6.82;;;;;;;;;;3510153;40;20587;-92
2020/12/09 07:52:33;;;;;;;19.17;4.70;;;;;;;;;;3520412;40;20115;-92
2020/12/09 07:55:32;;;;;;;12.73;4.72;;;5.80;99.90;;;;;;3504229;33;20119;-93
2020/12/09 07:58:44;;;;;;;15.73;5.53;;;;;;;;;;3505002;40;20122;-95
2020/12/09 08:01:27;;;;;;;31.25;8.68;;;5.90;99.90;;;;;;3517579;33;20124;-91
2020/12/09 08:03:57;;;;;;;27.23;7.10;;;;;;;;;;3509632;40;20068;-92
2020/12/09 08:06:25;;;;;;;19.40;5.43;;;;;;;;;;3499392;33;20115;-93
2020/12/09 08:09:22;;;;;;;13.05;5.40;;;5.80;99.90;;;;;;3500725;41;20120;-94
2020/12/09 08:12:09;;;;;;;16.77;5.90;;;;;;;;;;3531160;33;20144;-93
2020/12/09 08:14:36;;;;;;;15.30;5.65;;;5.70;99.90;;;;;;3520413;33;20080;-93
2020/12/09 08:17:32;;;;;;;19.70;5.65;;;;;;;;;;3539756;33;20120;-94
2020/12/09 08:20:46;;;;;;;13.48;4.95;;;;;;;;;;3516139;40;20140;-94
2020/12/09 08:23:52;;;;;;;14.43;5.30;;;;;;;;;;3497259;33;20120;-95
2020/12/09 08:26:50;;;;;;;19.33;3.83;;;;;;;;;;3503687;41;20108;-93
2020/12/09 08:29:38;;;;;;;18.13;4.65;;;;;;;;;;3511721;33;20077;-92
2020/12/09 08:36:46;;;;;;;14.20;7.57;;;;;;;;;;3553977;33;20100;-93
2020/12/09 08:40:38;;;;;;;16.40;6.22;;;;;;;;;;3522693;40;20080;-95
2020/12/09 08:43:28;;;;;;;17.45;7.28;;;;;;;;;;3505579;33;20135;-91
2020/12/09 08:46:06;;;;;;;15.05;4.13;;;;;;;;;;3503591;33;20119;-92
2020/12/09 08:48:37;;;;;;;;;;;;;;;;;;3519235;33;20143;-91
2020/12/09 08:51:10;;;;;;;18.65;5.70;;;;;;;;;;3513919;33;20016;-93
2020/12/09 08:53:40;;;;;;;15.55;4.93;;;;;;;;;;3513579;33;20145;-93
2020/12/09 08:56:15;;;;;;;;;;;5.80;99.90;;;;;;3504014;40;20151;-90
2020/12/09 08:59:04;;;;;;;18.95;6.50;;;;;;;;;;3499215;33;19996;-92
2020/12/09 09:01:53;;;;;;;;;;;6.00;99.90;;;;;;3506594;40;20120;-91
2020/12/09 09:04:44;;;;;;;16.73;4.10;;;;;;;;;;3509568;33;20732;-91
2020/12/09 09:07:20;;;;;;;17.45;6.45;;;;;;;;;;3520302;33;20107;-91
2020/12/09 09:10:04;;;;;;;15.77;4.47;;;;;;;;;;3509847;40;20143;-92
2020/12/09 09:12:47;;;;;;;18.10;5.53;;;;;;;;;;3503109;33;20211;-91
2020/12/09 09:15:48;;;;;;;16.98;7.22;;;;;;;;;;3515404;40;20092;-93
2020/12/09 09:19:27;;;;;;;14.50;5.60;;;5.90;99.90;;;;;;3532668;33;20093;-93
2020/12/09 09:22:41;;;;;;;22.52;6.35;;;;;;;;;;3512582;33;20138;-92
2020/12/09 09:25:28;;;;;;;18.23;5.82;;;;;;;;;;3521768;33;20120;-94
2020/12/09 09:27:58;;;;;;;19.67;5.35;;;;;;;;;;3507954;33;20115;-93
2020/12/09 09:31:04;;;;;;;16.83;5.28;;;;;;;;;;3490089;41;20133;-92
2020/12/09 09:33:37;;;;;;;20.77;6.57;;;;;;;;;;3500176;35;20131;-91
2020/12/09 09:39:31;;;;;;;22.83;4.95;;;;;;;;;;3520473;33;20152;-93
2020/12/09 09:42:11;;;;;;;20.20;5.43;;;;;;;;;;3503594;41;20108;-93
2020/12/09 09:45:02;;;;;;;18.60;5.10;;;;;;;;;;3518570;33;20104;-93
2020/12/09 09:47:48;;;;;;;15.98;7.38;;;;;;;;;;3520799;33;20194;-91
2020/12/09 09:54:03;;;;;;;25.10;6.70;;;;;;;;;;3465517;41;20163;-93
2020/12/09 09:56:40;;;;;;;17.83;6.55;;;;;;;;;;3466233;33;20138;-93
2020/12/09 09:59:29;;;;;;;20.52;5.65;;;;;;;;;;3525019;33;20105;-91
2020/12/09 10:02:33;;;;;;;14.95;5.40;;;;;;;;;;3478384;34;20114;-90
2020/12/09 10:05:30;;;;;;;13.60;5.15;;;;;;;;;;3479553;33;20117;-91
2020/12/09 10:08:20;;;;;;;20.15;5.85;;;;;;;;;;3448661;41;20138;-91
2020/12/09 10:11:55;;;;;;;20.75;5.82;;;6.50;99.90;;;;;;3465147;41;20141;-90
2020/12/09 10:15:07;;;;;;;26.42;4.82;;;;;;;;;;3465979;41;20134;-90
2020/12/09 10:21:48;;;;;;;11.68;4.78;;;6.60;99.90;;;;;;3505596;41;20104;-92
2020/12/09 10:24:41;;;;;;;25.40;6.78;;;;;;;;;;3508331;33;20131;-90
2020/12/09 10:28:02;;;;;;;18.20;6.30;;;;;;;;;;3503241;33;20088;-92
2020/12/09 10:31:53;;;;;;;16.48;5.05;;;;;;;;;;3769896;33;20060;-92
2020/12/09 10:53:03;;;;;;;20.52;8.45;;;;;;;;;;3519950;40;20110;-92
2020/12/09 11:04:12;;;;;;;18.05;5.22;;;;;;;;;;3447863;33;20129;-93
2020/12/09 11:06:49;;;;;;;14.23;4.70;;;;;;;;;;3545139;33;20127;-93
2020/12/09 11:09:55;;;;;;;17.67;6.60;;;;;;;;;;3501747;41;20234;-93
2020/12/09 11:12:28;;;;;;;32.25;12.63;;;;;;;;;;3514121;33;20116;-93
2020/12/09 11:15:13;;;;;;;22.45;6.53;;;;;;;;;;3532172;33;20116;-92
2020/12/09 11:18:08;;;;;;;22.05;5.50;;;;;;;;;;3502769;40;20139;-93
2020/12/09 11:21:40;;;;;;;15.32;3.90;;;7.20;99.90;;;;;;3501681;41;20096;-93
2020/12/09 11:24:37;;;;;;;13.68;5.63;;;;;;;;;;3502066;33;20101;-92
2020/12/09 11:27:45;;;;;;;15.77;6.30;;;;;;;;;;3519497;33;20108;-93
2020/12/09 11:30:58;;;;;;;;;;;7.20;99.90;;;;;;3516144;40;20127;-95
2020/12/09 11:33:52;;;;;;;21.48;8.98;;;;;;;;;;3495406;41;19950;-93
2020/12/09 11:37:07;;;;;;;24.13;5.47;;;7.10;99.90;;;;;;3503767;33;20170;-93
2020/12/09 11:40:15;;;;;;;9.55;5.13;;;;;;;;;;3495653;41;20108;-93
2020/12/09 11:43:15;;;;;;;22.67;6.05;;;;;;;;;;3521126;33;20105;-92
2020/12/09 11:47:00;;;;;;;13.35;4.28;;;7.20;99.90;;;;;;3499350;33;20127;-92
2020/12/09 11:50:20;;;;;;;15.27;5.45;;;7.20;99.90;;;;;;3501313;33;20742;-92
2020/12/09 11:53:29;;;;;;;;;;;7.30;99.90;;;;;;3521665;33;20111;-91
2020/12/09 11:56:04;;;;;;;23.15;5.05;;;7.20;99.90;;;;;;3486764;33;20001;-89
2020/12/09 11:58:34;;;;;;;21.20;6.45;;;;;;;;;;3482909;41;20137;-87
2020/12/09 12:01:07;;;;;;;15.00;4.75;;;;;;;;;;3500307;33;20128;-89
2020/12/09 12:03:36;;;;;;;15.75;5.15;;;;;;;;;;3501369;33;20132;-90
2020/12/09 12:06:38;;;;;;;19.27;6.78;;;7.50;99.90;;;;;;3513476;33;20131;-90
2020/12/09 12:09:21;;;;;;;33.08;6.90;;;;;;;;;;3502239;33;20061;-91
2020/12/09 12:11:57;;;;;;;11.00;4.57;;;7.50;99.90;;;;;;3511029;41;20131;-89
2020/12/09 12:14:57;;;;;;;32.78;8.68;;;;;;;;;;3503751;41;20286;-91
2020/12/09 12:17:30;;;;;;;14.02;4.43;;;;;;;;;;3497740;33;20152;-88
2020/12/09 12:20:04;;;;;;;14.88;5.35;;;7.60;99.90;;;;;;3509773;33;20080;-89
2020/12/09 12:22:42;;;;;;;15.95;6.35;;;;;;;;;;3539373;33;20152;-91
2020/12/09 12:25:16;;;;;;;7.18;4.63;;;;;;;;;;3525076;33;20108;-91
2020/12/09 12:28:05;;;;;;;17.77;4.15;;;;;;;;;;3507798;33;20132;-90
2020/12/09 12:30:48;;;;;;;16.50;4.82;;;;;;;;;;3512018;33;20116;-90
2020/12/09 12:36:16;;;;;;;26.60;9.02;;;;;;;;;;3517538;33;20112;-91
2020/12/09 12:38:45;;;;;;;15.88;5.05;;;;;;;;;;3505973;33;20127;-89
2020/12/09 12:41:29;;;;;;;16.83;5.38;;;;;;;;;;3507753;33;20537;-89
2020/12/09 12:44:18;;;;;;;28.05;7.35;;;7.80;99.90;;;;;;3509659;33;20132;-89
2020/12/09 12:47:04;;;;;;;12.30;4.55;;;;;;;;;;3504863;33;20132;-90
2020/12/09 12:50:13;;;;;;;13.60;5.57;;;;;;;;;;3526572;33;20081;-88
2020/12/09 12:52:53;;;;;;;23.70;5.00;;;;;;;;;;3500052;41;20162;-90
2020/12/09 12:55:37;;;;;;;18.30;5.63;;;7.90;99.90;;;;;;3500593;33;20092;-90
2020/12/09 12:58:34;;;;;;;14.75;3.97;;;8.20;99.90;;;;;;3515008;33;20077;-92
2020/12/09 13:01:44;;;;;;;17.05;5.55;;;7.70;99.90;;;;;;3537431;33;20111;-94
2020/12/09 13:04:57;;;;;;;10.20;4.63;;;;;;;;;;3510724;41;20139;-91
2020/12/09 13:07:29;;;;;;;10.85;3.90;;;;;;;;;;3509080;33;20123;-92
2020/12/09 13:10:01;;;;;;;14.27;5.20;;;;;;;;;;3502909;33;20500;-90
2020/12/09 13:12:31;;;;;;;;;;;7.90;99.90;;;;;;3504720;41;20140;-90
2020/12/09 13:14:58;;;;;;;14.95;4.57;;;;;;;;;;3510718;33;20012;-93
2020/12/09 13:17:29;;;;;;;17.33;4.65;;;;;;;;;;3517997;33;20136;-89
2020/12/09 13:19:57;;;;;;;13.25;4.57;;;;;;;;;;3522419;33;20608;-89
2020/12/09 13:22:32;;;;;;;17.10;5.85;;;;;;;;;;3518697;33;20099;-90
2020/12/09 13:25:17;;;;;;;23.27;5.78;;;;;;;;;;3496642;40;20128;-91
2020/12/09 13:27:50;;;;;;;18.27;4.78;;;;;;;;;;3544234;33;20156;-91
2020/12/09 13:30:35;;;;;;;13.07;5.40;;;;;;;;;;3512109;33;20123;-91
2020/12/09 13:33:04;;;;;;;13.07;5.63;;;7.70;99.90;;;;;;3516150;33;20147;-88
2020/12/09 13:35:44;;;;;;;17.83;6.35;;;7.70;99.90;;;;;;3495335;33;20098;-91
2020/12/09 13:38:14;;;;;;;12.80;3.85;;;;;;;;;;3495419;41;20110;-89
2020/12/09 13:40:47;;;;;;;20.90;6.40;;;7.60;99.90;;;;;;3500266;41;20116;-91
2020/12/09 13:43:21;;;;;;;14.35;5.10;;;;;;;;;;3497603;41;20146;-88
2020/12/09 13:45:51;;;;;;;11.77;5.28;;;;;;;;;;3504562;33;20077;-90
2020/12/09 13:48:33;;;;;;;15.35;4.95;;;;;;;;;;3487556;33;20128;-89
2020/12/09 13:51:06;;;;;;;14.82;3.97;;;;;;;;;;3499635;33;20109;-89
2020/12/09 13:53:42;;;;;;;18.85;6.43;;;;;;;;;;3494810;41;20168;-89
2020/12/09 13:56:53;;;;;;;14.63;5.10;;;;;;;;;;3523060;33;20112;-93
2020/12/09 13:59:23;;;;;;;15.60;5.03;;;;;;;;;;3511942;33;20140;-89
2020/12/09 14:01:50;;;;;;;31.70;7.15;;;;;;;;;;3489661;41;20127;-89
2020/12/09 14:04:19;;;;;;;36.10;8.15;;;;;;;;;;3489395;33;20133;-88
2020/12/09 14:06:49;;;;;;;21.10;4.75;;;;;;;;;;3493243;33;20229;-89
2020/12/09 14:09:18;;;;;;;22.15;8.05;;;;;;;;;;3507740;33;20104;-88
2020/12/09 14:11:48;;;;;;;11.82;5.10;;;;;;;;;;3492934;41;20116;-90
2020/12/09 14:14:19;;;;;;;12.73;4.63;;;7.40;99.90;;;;;;3483098;33;20131;-88
2020/12/09 14:16:51;;;;;;;16.27;5.78;;;;;;;;;;3494287;33;20177;-91
2020/12/09 14:23:40;;;;;;;8.23;4.70;;;;;;;;;;3629728;33;20131;-93
2020/12/09 14:26:31;;;;;;;;;;;;;;;;;;3705523;35;21267;-93
2020/12/09 14:29:44;;;;;;;20.03;6.40;;;;;;;;;;3511072;33;20407;-93
2020/12/09 14:32:31;;;;;;;21.00;6.60;;;;;;;;;;3571563;33;20123;-94
2020/12/09 14:35:32;;;;;;;14.30;6.22;;;;;;;;;;3532847;33;20487;-94
2020/12/09 14:38:19;;;;;;;17.50;5.65;;;;;;;;;;3519298;33;20079;-94
2020/12/09 14:41:29;;;;;;;19.23;5.68;;;;;;;;;;3507183;41;20123;-93
2020/12/09 14:44:08;;;;;;;13.70;5.03;;;;;;;;;;3506854;33;20096;-93
2020/12/09 14:46:56;;;;;;;22.90;6.38;;;;;;;;;;3487816;41;20084;-93
2020/12/09 14:49:29;;;;;;;16.45;4.82;;;;;;;;;;3570392;33;20095;-94
2020/12/09 14:52:18;;;;;;;25.15;6.00;;;;;;;;;;3504660;41;20748;-95
2020/12/09 14:55:05;;;;;;;15.98;5.72;;;;;;;;;;3506175;33;20123;-90
2020/12/09 14:57:36;;;;;;;24.88;8.15;;;;;;;;;;3510107;33;20121;-89
2020/12/09 15:00:09;;;;;;;15.18;6.28;;;;;;;;;;3532402;33;20103;-90
2020/12/09 15:02:46;;;;;;;17.00;7.45;;;;;;;;;;3494816;41;20123;-90
2020/12/09 15:05:15;;;;;;;24.83;8.77;;;;;;;;;;3497606;41;20120;-89
2020/12/09 15:07:43;;;;;;;17.38;6.30;;;;;;;;;;3534469;33;20124;-91
2020/12/09 15:10:11;;;;;;;26.23;7.93;;;;;;;;;;3491189;41;20132;-90
2020/12/09 15:12:41;;;;;;;20.20;6.45;;;;;;;;;;3506313;33;20186;-89
2020/12/09 15:15:13;;;;;;;12.75;6.18;;;6.70;99.90;;;;;;3505842;33;20128;-90
2020/12/09 15:17:42;;;;;;;15.35;6.85;;;;;;;;;;3513810;33;20208;-90
2020/12/09 15:20:13;;;;;;;23.17;7.23;;;;;;;;;;3508621;33;20111;-89
2020/12/09 15:22:57;;;;;;;18.98;7.40;;;;;;;;;;3509504;41;20212;-89
2020/12/09 15:25:36;;;;;;;19.23;6.20;;;;;;;;;;3506288;41;20140;-92
2020/12/09 15:28:08;;;;;;;39.83;10.00;;;;;;;;;;3498126;41;20132;-92
2020/12/09 15:31:16;;;;;;;19.33;5.70;;;6.70;99.90;;;;;;3497658;41;20115;-89
2020/12/09 15:33:45;;;;;;;22.58;9.35;;;;;;;;;;3500052;41;20214;-92
2020/12/09 15:37:07;;;;;;;15.40;5.78;;;6.70;99.90;;;;;;3504508;41;20128;-94
2020/12/09 15:39:53;;;;;;;16.20;7.05;;;;;;;;;;3504927;33;20112;-88
2020/12/09 15:43:02;;;;;;;15.18;6.45;;;;;;;;;;3505149;33;20216;-90
2020/12/09 15:45:38;;;;;;;20.02;7.88;;;;;;;;;;3512575;33;20135;-91
2020/12/09 15:48:07;;;;;;;23.35;7.13;;;;;;;;;;3512108;33;20072;-91
2020/12/09 15:51:00;;;;;;;14.93;6.30;;;;;;;;;;3505352;33;20109;-91
2020/12/09 15:53:45;;;;;;;18.10;6.90;;;;;;;;;;3492712;33;20116;-90